Time;durP1;ratioP1;P1;durP2;ratioP2;P2;SDS_P1;SDS_P2;PMS_P1;PMS_P2;Temp;Humidity;BMP_temperature;BMP_pressure;BME280_temperature;BME280_humidity;BME280_pressure;Samples;Min_cycle;Max_cycle;Signal;HPM_P1;HPM_P2
2022/11/26 00:00:49;;;;;;;31.43;19.13;;;7.80;99.90;;;;;;5079223;28;20474;-65
2022/11/26 00:03:19;;;;;;;32.77;20.13;;;7.70;99.90;;;;;;5080201;28;20792;-65
2022/11/26 00:05:51;;;;;;;34.70;19.63;;;7.70;99.90;;;;;;5080594;28;20926;-65
2022/11/26 00:08:24;;;;;;;40.50;20.93;;;7.70;99.90;;;;;;5066278;28;20472;-65
2022/11/26 00:10:53;;;;;;;32.30;20.53;;;7.70;99.90;;;;;;5059917;28;20523;-65
2022/11/26 00:13:25;;;;;;;35.43;20.83;;;7.60;99.90;;;;;;5061292;28;20443;-65
2022/11/26 00:15:52;;;;;;;34.00;18.70;;;7.60;99.90;;;;;;5059950;28;20443;-65
2022/11/26 00:18:22;;;;;;;39.03;19.70;;;7.60;99.90;;;;;;5069612;28;20444;-65
2022/11/26 00:20:53;;;;;;;32.00;18.70;;;7.60;99.90;;;;;;5080522;28;20465;-65
2022/11/26 00:23:24;;;;;;;30.10;19.70;;;7.60;99.90;;;;;;5078327;28;20913;-65
2022/11/26 00:25:55;;;;;;;32.70;19.20;;;7.60;99.90;;;;;;5080281;28;20490;-66
2022/11/26 00:28:28;;;;;;;31.70;17.47;;;7.60;99.90;;;;;;5073456;28;20465;-65
2022/11/26 00:30:58;;;;;;;32.87;18.60;;;7.60;99.90;;;;;;5069831;28;20465;-65
2022/11/26 00:33:29;;;;;;;32.70;20.20;;;7.60;99.90;;;;;;5079359;28;20822;-66
2022/11/26 00:36:02;;;;;;;29.47;19.07;;;7.60;99.90;;;;;;5079799;28;20951;-65
2022/11/26 00:38:31;;;;;;;33.90;19.73;;;7.60;99.90;;;;;;5080122;28;20518;-65
2022/11/26 00:41:02;;;;;;;36.60;20.17;;;7.60;99.90;;;;;;5077872;28;20500;-66
2022/11/26 00:43:30;;;;;;;36.87;20.87;;;7.60;99.90;;;;;;5079593;28;20469;-65
2022/11/26 00:45:57;;;;;;;32.83;19.17;;;7.60;99.90;;;;;;5080085;28;20583;-65
2022/11/26 00:48:26;;;;;;;39.60;21.33;;;7.60;99.90;;;;;;5079006;28;20464;-65
2022/11/26 00:50:54;;;;;;;29.97;19.03;;;7.60;99.90;;;;;;5078538;28;20470;-65
2022/11/26 00:53:24;;;;;;;38.27;20.60;;;7.50;99.90;;;;;;5079013;28;20482;-65
2022/11/26 00:55:53;;;;;;;54.23;21.90;;;7.60;99.90;;;;;;5079843;28;20507;-65
2022/11/26 00:58:26;;;;;;;31.27;21.60;;;7.60;99.90;;;;;;5079940;28;20461;-65
2022/11/26 01:00:54;;;;;;;38.13;21.00;;;7.50;99.90;;;;;;5063410;28;20783;-65
2022/11/26 01:03:22;;;;;;;32.63;19.00;;;7.50;99.90;;;;;;5077158;28;20489;-65
2022/11/26 01:05:51;;;;;;;32.90;20.37;;;7.50;99.90;;;;;;5079607;28;20493;-65
2022/11/26 01:08:28;;;;;;;37.03;19.70;;;7.50;99.90;;;;;;5079494;28;20878;-65
2022/11/26 01:11:00;;;;;;;33.03;19.40;;;7.50;99.90;;;;;;5066890;28;20462;-65
2022/11/26 01:13:31;;;;;;;41.77;20.77;;;7.50;99.90;;;;;;5059714;28;20932;-66
2022/11/26 01:16:01;;;;;;;33.47;20.40;;;7.50;99.90;;;;;;5059297;28;20788;-65
2022/11/26 01:18:32;;;;;;;40.57;21.23;;;7.50;99.90;;;;;;5058570;28;20524;-66
2022/11/26 01:21:01;;;;;;;30.93;18.87;;;7.50;99.90;;;;;;5066746;28;20466;-65
2022/11/26 01:23:29;;;;;;;35.37;19.60;;;7.50;99.90;;;;;;5077197;28;20913;-65
2022/11/26 01:25:57;;;;;;;31.43;19.00;;;7.50;99.90;;;;;;5078949;28;20492;-65
2022/11/26 01:28:28;;;;;;;29.80;18.67;;;7.50;99.90;;;;;;5078717;28;20863;-65
2022/11/26 01:30:55;;;;;;;32.53;19.67;;;7.60;99.90;;;;;;5073815;28;20485;-65
2022/11/26 01:33:22;;;;;;;33.20;19.00;;;7.50;99.90;;;;;;5058739;28;20468;-65
2022/11/26 01:35:52;;;;;;;33.43;18.10;;;7.60;99.90;;;;;;5059193;28;20867;-65
2022/11/26 01:38:19;;;;;;;35.23;17.57;;;7.60;99.90;;;;;;5059180;28;20433;-65
2022/11/26 01:40:59;;;;;;;31.70;18.40;;;7.60;99.90;;;;;;5058921;28;20541;-65
2022/11/26 01:43:32;;;;;;;35.50;17.07;;;7.50;99.90;;;;;;5058677;28;20462;-65
2022/11/26 01:45:59;;;;;;;29.70;18.67;;;7.50;99.90;;;;;;5063563;28;20477;-66
2022/11/26 01:48:30;;;;;;;26.03;18.03;;;7.40;99.90;;;;;;5078057;28;20472;-66
2022/11/26 01:51:04;;;;;;;27.57;15.47;;;7.50;99.90;;;;;;5078005;28;20552;-65
2022/11/26 01:53:51;;;;;;;40.73;17.53;;;7.40;99.90;;;;;;5072730;28;20751;-65
2022/11/26 01:56:27;;;;;;;25.20;15.37;;;7.30;99.90;;;;;;5059018;28;20462;-66
2022/11/26 01:59:03;;;;;;;25.23;15.37;;;7.30;99.90;;;;;;5058564;28;20462;-65
2022/11/26 02:01:31;;;;;;;28.67;15.00;;;7.20;99.90;;;;;;5058445;28;20541;-66
2022/11/26 02:04:10;;;;;;;26.10;14.07;;;7.20;99.90;;;;;;5075186;28;20946;-65
2022/11/26 02:06:40;;;;;;;24.63;13.03;;;7.10;99.90;;;;;;5078220;28;20548;-66
2022/11/26 02:09:10;;;;;;;21.37;12.70;;;7.10;99.90;;;;;;5061229;28;20655;-65
2022/11/26 02:11:38;;;;;;;26.50;14.00;;;7.10;99.90;;;;;;5058553;28;20488;-66
2022/11/26 02:14:09;;;;;;;23.93;12.63;;;7.00;99.90;;;;;;5058171;28;20859;-65
2022/11/26 02:17:01;;;;;;;29.97;14.40;;;7.00;99.90;;;;;;5058213;28;20481;-65
2022/11/26 02:20:16;;;;;;;27.33;13.57;;;7.00;99.90;;;;;;5073423;28;20569;-65
2022/11/26 02:23:24;;;;;;;23.73;12.40;;;6.90;99.90;;;;;;5059784;28;20852;-65
2022/11/26 02:26:15;;;;;;;26.00;13.10;;;6.90;99.90;;;;;;5077964;28;20591;-65
2022/11/26 02:29:06;;;;;;;24.57;13.40;;;6.70;99.90;;;;;;5070544;28;20468;-65
2022/11/26 02:31:41;;;;;;;24.80;12.73;;;6.70;99.90;;;;;;5068547;28;20458;-65
2022/11/26 02:34:20;;;;;;;19.73;12.40;;;6.60;99.90;;;;;;5077231;28;20503;-65
2022/11/26 02:36:51;;;;;;;29.50;13.27;;;6.50;99.90;;;;;;5077728;28;20457;-65
2022/11/26 02:39:21;;;;;;;24.30;12.80;;;6.50;99.90;;;;;;5077579;28;20957;-65
2022/11/26 02:41:50;;;;;;;19.63;11.80;;;6.40;99.90;;;;;;5068475;28;20465;-66
2022/11/26 02:44:22;;;;;;;23.50;12.93;;;6.30;99.90;;;;;;5057838;28;20428;-66
2022/11/26 02:46:57;;;;;;;23.53;11.87;;;6.30;99.90;;;;;;5071232;28;20489;-65
2022/11/26 02:49:27;;;;;;;24.50;12.37;;;6.20;99.90;;;;;;5077193;28;20526;-65
2022/11/26 02:51:57;;;;;;;31.23;13.73;;;6.10;99.90;;;;;;5076830;28;20491;-66
2022/11/26 02:54:25;;;;;;;28.17;13.50;;;6.00;99.90;;;;;;5075333;28;20457;-65
2022/11/26 02:56:54;;;;;;;27.83;13.30;;;6.00;99.90;;;;;;5076747;28;20727;-65
2022/11/26 02:59:22;;;;;;;20.73;13.00;;;6.00;99.90;;;;;;5077148;28;20461;-66
2022/11/26 03:01:57;;;;;;;19.40;12.40;;;6.00;99.90;;;;;;5075531;28;20523;-65
2022/11/26 03:04:31;;;;;;;21.03;12.33;;;5.90;99.90;;;;;;5057236;28;20560;-65
2022/11/26 03:07:03;;;;;;;27.67;12.70;;;5.80;99.90;;;;;;5063870;28;20929;-65
2022/11/26 03:09:40;;;;;;;22.73;12.27;;;5.70;99.90;;;;;;5077340;28;20518;-65
2022/11/26 03:12:08;;;;;;;22.50;13.70;;;5.60;99.90;;;;;;5076742;28;20757;-65
2022/11/26 03:14:35;;;;;;;24.47;13.10;;;5.60;99.90;;;;;;5058189;28;20465;-65
2022/11/26 03:17:04;;;;;;;27.03;16.83;;;5.50;99.90;;;;;;5057104;28;20468;-65
2022/11/26 03:19:34;;;;;;;24.13;14.93;;;5.60;99.90;;;;;;5057033;28;20496;-65
2022/11/26 03:22:01;;;;;;;23.97;15.73;;;5.60;99.90;;;;;;5057539;28;20458;-65
2022/11/26 03:24:28;;;;;;;28.63;15.47;;;5.60;99.90;;;;;;5071803;28;20544;-65
2022/11/26 03:26:58;;;;;;;27.00;14.83;;;5.60;99.90;;;;;;5076446;28;20961;-65
2022/11/26 03:29:26;;;;;;;29.00;19.33;;;5.50;99.90;;;;;;5076229;28;20494;-65
2022/11/26 03:31:54;;;;;;;35.87;17.87;;;5.50;99.90;;;;;;5077125;28;20556;-65
2022/11/26 03:34:28;;;;;;;33.60;17.50;;;5.60;99.90;;;;;;5076700;28;20520;-65
2022/11/26 03:36:55;;;;;;;33.93;18.80;;;5.50;99.90;;;;;;5077503;28;20751;-65
2022/11/26 03:39:22;;;;;;;32.20;19.40;;;5.50;99.90;;;;;;5060116;28;20466;-65
2022/11/26 03:41:52;;;;;;;30.23;18.20;;;5.40;99.90;;;;;;5056989;28;20515;-65
2022/11/26 03:44:20;;;;;;;32.03;19.00;;;5.40;99.90;;;;;;5056683;28;20920;-65
2022/11/26 03:46:48;;;;;;;27.83;17.80;;;5.40;99.90;;;;;;5056893;28;20500;-65
2022/11/26 03:49:15;;;;;;;28.03;17.00;;;5.40;99.90;;;;;;5057350;28;20505;-65
2022/11/26 03:51:44;;;;;;;38.63;20.17;;;5.40;99.90;;;;;;5056554;28;20437;-65
2022/11/26 03:54:13;;;;;;;36.10;18.90;;;5.40;99.90;;;;;;5056582;28;20437;-65
2022/11/26 03:56:41;;;;;;;39.40;20.87;;;5.50;99.90;;;;;;5057850;28;20454;-65
2022/11/26 03:59:09;;;;;;;32.63;19.97;;;5.60;99.90;;;;;;5057095;28;20477;-65
2022/11/26 04:01:36;;;;;;;38.97;20.10;;;5.60;99.90;;;;;;5056627;28;20484;-65
2022/11/26 04:04:04;;;;;;;36.40;19.30;;;5.60;99.90;;;;;;5056533;28;20552;-65
2022/11/26 04:06:31;;;;;;;30.73;18.87;;;5.50;99.90;;;;;;5073567;28;20493;-65
2022/11/26 04:09:00;;;;;;;30.53;18.17;;;5.40;99.90;;;;;;5057635;28;20565;-65
2022/11/26 04:11:30;;;;;;;32.00;17.90;;;5.40;99.90;;;;;;5060575;28;20462;-65
2022/11/26 04:13:57;;;;;;;40.13;18.60;;;5.40;99.90;;;;;;5060316;28;20464;-65
2022/11/26 04:16:24;;;;;;;32.23;18.10;;;5.40;99.90;;;;;;5060050;28;20465;-65
2022/11/26 04:18:52;;;;;;;36.33;19.03;;;5.50;99.90;;;;;;5061150;28;20462;-65
2022/11/26 04:21:22;;;;;;;30.63;18.60;;;5.50;99.90;;;;;;5060387;28;20846;-65
2022/11/26 04:23:52;;;;;;;32.90;19.37;;;5.60;99.90;;;;;;5059852;28;20437;-65
2022/11/26 04:26:21;;;;;;;32.67;19.90;;;5.60;99.90;;;;;;5068466;28;20803;-65
2022/11/26 04:28:49;;;;;;;33.63;17.57;;;5.70;99.90;;;;;;5080307;28;20487;-65
2022/11/26 04:31:16;;;;;;;35.80;18.87;;;5.70;99.90;;;;;;5065543;28;20820;-65
2022/11/26 04:33:44;;;;;;;35.53;19.60;;;5.60;99.90;;;;;;5059843;28;20465;-65
2022/11/26 04:36:11;;;;;;;33.87;19.30;;;5.50;99.90;;;;;;5063915;28;20492;-65
2022/11/26 04:38:39;;;;;;;35.73;17.80;;;5.50;99.90;;;;;;5079726;28;20556;-65
2022/11/26 04:41:06;;;;;;;30.83;18.90;;;5.50;99.90;;;;;;5079921;28;20461;-65
2022/11/26 04:43:35;;;;;;;48.03;18.70;;;5.50;99.90;;;;;;5079668;28;20552;-65
2022/11/26 04:46:02;;;;;;;34.17;19.70;;;5.50;99.90;;;;;;5079381;28;20464;-65
2022/11/26 04:48:29;;;;;;;30.00;19.80;;;5.70;99.90;;;;;;5079501;28;20443;-65
2022/11/26 04:50:56;;;;;;;35.73;20.00;;;5.70;99.90;;;;;;5080060;28;20468;-65
2022/11/26 04:53:24;;;;;;;40.67;19.37;;;5.80;99.90;;;;;;5079245;28;20435;-65
2022/11/26 04:55:52;;;;;;;40.33;20.37;;;5.90;99.90;;;;;;5079713;28;20464;-65
2022/11/26 04:58:22;;;;;;;55.73;22.03;;;5.90;99.90;;;;;;5079677;28;20461;-65
2022/11/26 05:00:53;;;;;;;45.33;21.90;;;6.00;99.90;;;;;;5079970;28;20457;-65
2022/11/26 05:03:20;;;;;;;46.13;21.87;;;6.10;99.90;;;;;;5060213;28;20453;-65
2022/11/26 05:05:48;;;;;;;40.47;21.67;;;6.10;99.90;;;;;;5059165;28;20773;-65
2022/11/26 05:08:15;;;;;;;36.17;20.60;;;6.20;99.90;;;;;;5058987;28;20532;-66
2022/11/26 05:10:43;;;;;;;47.30;21.03;;;6.20;99.90;;;;;;5060601;28;20944;-65
2022/11/26 05:13:13;;;;;;;35.83;20.90;;;6.20;99.90;;;;;;5060596;28;20497;-65
2022/11/26 05:15:42;;;;;;;43.03;21.60;;;6.30;99.90;;;;;;5059108;28;20459;-65
2022/11/26 05:18:11;;;;;;;46.73;22.60;;;6.30;99.90;;;;;;5067534;28;20461;-65
2022/11/26 05:20:38;;;;;;;38.30;21.13;;;6.40;99.90;;;;;;5077375;28;20451;-65
2022/11/26 05:23:08;;;;;;;35.73;20.00;;;6.40;99.90;;;;;;5076337;28;20478;-65
2022/11/26 05:25:38;;;;;;;38.77;21.37;;;6.50;99.90;;;;;;5078539;28;20493;-65
2022/11/26 05:28:06;;;;;;;44.60;22.43;;;6.50;99.90;;;;;;5077594;28;20467;-65
2022/11/26 05:30:34;;;;;;;36.60;21.87;;;6.60;99.90;;;;;;5058855;28;20899;-65
2022/11/26 05:33:01;;;;;;;45.47;23.43;;;6.50;99.90;;;;;;5059920;28;20458;-65
2022/11/26 05:35:35;;;;;;;39.40;21.03;;;6.60;99.90;;;;;;5058552;28;20558;-65
2022/11/26 05:38:02;;;;;;;37.20;20.53;;;6.60;99.90;;;;;;5079377;28;20517;-65
2022/11/26 05:40:29;;;;;;;38.13;20.67;;;6.60;99.90;;;;;;5082623;28;20525;-63
2022/11/26 05:42:56;;;;;;;37.30;20.93;;;6.60;99.90;;;;;;5089136;28;20467;-63
2022/11/26 05:45:23;;;;;;;40.90;21.80;;;6.60;99.90;;;;;;5056671;28;20776;-63
2022/11/26 05:47:55;;;;;;;39.20;19.93;;;6.60;99.90;;;;;;5057529;28;20469;-63
2022/11/26 05:50:23;;;;;;;32.87;18.70;;;6.60;99.90;;;;;;5068166;28;20894;-63
2022/11/26 05:52:51;;;;;;;39.40;20.00;;;6.60;99.90;;;;;;5077662;28;20471;-63
2022/11/26 05:55:19;;;;;;;44.03;19.73;;;6.60;99.90;;;;;;5059971;28;20501;-62
2022/11/26 05:57:48;;;;;;;34.43;20.97;;;6.50;99.90;;;;;;5067375;28;20451;-63
2022/11/26 06:00:16;;;;;;;36.03;18.73;;;6.50;99.90;;;;;;5075788;28;20913;-63
2022/11/26 06:02:43;;;;;;;37.90;20.27;;;6.50;99.90;;;;;;5071303;28;20485;-63
2022/11/26 06:05:11;;;;;;;34.10;19.37;;;6.50;99.90;;;;;;5077236;28;20465;-63
2022/11/26 06:07:38;;;;;;;40.03;22.33;;;6.40;99.90;;;;;;5076743;28;20496;-63
2022/11/26 06:10:09;;;;;;;37.37;19.00;;;6.50;99.90;;;;;;5077349;28;20457;-63
2022/11/26 06:12:37;;;;;;;39.43;20.20;;;6.40;99.90;;;;;;5078770;28;20872;-63
2022/11/26 06:15:05;;;;;;;38.63;21.77;;;6.40;99.90;;;;;;5083770;28;20467;-63
2022/11/26 06:17:32;;;;;;;34.60;18.90;;;6.40;99.90;;;;;;5086491;28;20477;-63
2022/11/26 06:20:00;;;;;;;36.97;20.20;;;6.30;99.90;;;;;;5081600;28;20497;-63
2022/11/26 06:22:27;;;;;;;32.77;19.13;;;6.30;99.90;;;;;;5084391;28;20536;-63
2022/11/26 06:24:57;;;;;;;34.17;18.20;;;6.30;99.90;;;;;;5058393;28;20484;-63
2022/11/26 06:27:26;;;;;;;32.40;18.80;;;6.20;99.90;;;;;;5077333;28;20485;-63
2022/11/26 06:29:53;;;;;;;32.30;18.13;;;6.20;99.90;;;;;;5077250;28;20817;-62
2022/11/26 06:32:20;;;;;;;37.73;19.80;;;6.20;99.90;;;;;;5076509;28;20557;-63
2022/11/26 06:34:47;;;;;;;31.73;18.57;;;6.10;99.90;;;;;;5063200;28;20498;-62
2022/11/26 06:37:14;;;;;;;41.23;19.60;;;6.00;99.90;;;;;;5057629;28;20767;-62
2022/11/26 06:39:42;;;;;;;38.53;19.10;;;6.00;99.90;;;;;;5063121;28;20492;-63
2022/11/26 06:42:11;;;;;;;46.67;20.20;;;6.00;99.90;;;;;;5070520;28;20552;-63
2022/11/26 06:44:40;;;;;;;38.07;22.03;;;5.90;99.90;;;;;;5086290;28;20456;-62
2022/11/26 06:47:10;;;;;;;39.37;23.47;;;5.80;99.90;;;;;;5083810;28;20485;-62
2022/11/26 06:49:38;;;;;;;42.37;21.43;;;5.70;99.90;;;;;;5080962;28;20492;-62
2022/11/26 06:52:05;;;;;;;41.13;20.80;;;5.70;99.90;;;;;;5082786;28;20509;-62
2022/11/26 06:54:33;;;;;;;46.47;20.33;;;5.70;99.90;;;;;;5084294;28;20957;-62
2022/11/26 06:57:03;;;;;;;35.37;17.87;;;5.70;99.90;;;;;;5082994;28;20551;-62
2022/11/26 06:59:31;;;;;;;38.43;18.83;;;5.70;99.90;;;;;;5082208;28;20896;-63
2022/11/26 07:01:59;;;;;;;36.00;20.10;;;5.80;99.90;;;;;;5084827;28;20458;-63
2022/11/26 07:04:29;;;;;;;41.93;19.37;;;5.90;99.90;;;;;;5078351;28;20956;-62
2022/11/26 07:06:56;;;;;;;40.33;18.33;;;6.00;99.90;;;;;;5083999;28;20488;-62
2022/11/26 07:09:23;;;;;;;40.20;17.87;;;5.90;99.90;;;;;;5081659;28;20453;-63
2022/11/26 07:11:54;;;;;;;30.67;17.93;;;5.90;99.90;;;;;;5084181;28;20822;-63
2022/11/26 07:14:24;;;;;;;31.90;17.70;;;5.90;99.90;;;;;;5080566;28;20468;-62
2022/11/26 07:16:51;;;;;;;29.53;18.00;;;5.80;99.90;;;;;;5082280;28;20460;-63
2022/11/26 07:19:19;;;;;;;35.67;17.43;;;5.80;99.90;;;;;;5082635;28;20464;-63
2022/11/26 07:21:47;;;;;;;39.13;16.13;;;5.90;99.90;;;;;;5087487;28;20453;-63
2022/11/26 07:24:14;;;;;;;29.50;18.17;;;5.80;99.90;;;;;;5083990;28;20465;-63
2022/11/26 07:26:44;;;;;;;39.23;17.93;;;5.80;99.90;;;;;;5084546;28;20489;-63
2022/11/26 07:29:12;;;;;;;30.30;16.97;;;5.80;99.90;;;;;;5081752;28;20473;-63
2022/11/26 07:31:39;;;;;;;36.70;17.73;;;5.80;99.90;;;;;;5084360;28;20460;-63
2022/11/26 07:34:06;;;;;;;34.67;16.30;;;5.90;99.90;;;;;;5081988;28;20534;-63
2022/11/26 07:36:41;;;;;;;33.80;16.67;;;5.90;99.90;;;;;;5076958;28;20462;-62
2022/11/26 07:39:10;;;;;;;25.43;15.70;;;5.90;99.90;;;;;;5091884;28;20854;-62
2022/11/26 07:41:38;;;;;;;37.57;18.83;;;5.90;99.90;;;;;;5097235;28;20483;-62
2022/11/26 07:44:05;;;;;;;43.00;16.60;;;5.90;99.90;;;;;;5097232;28;20461;-62
2022/11/26 07:46:33;;;;;;;26.30;15.70;;;5.90;99.90;;;;;;5081268;28;20485;-62
2022/11/26 07:49:03;;;;;;;29.00;16.10;;;5.90;99.90;;;;;;5079480;28;20454;-63
2022/11/26 07:51:32;;;;;;;31.53;16.20;;;6.00;99.90;;;;;;5080641;28;20497;-62
2022/11/26 07:54:04;;;;;;;28.80;16.40;;;6.00;99.90;;;;;;5080526;28;20461;-63
2022/11/26 07:56:32;;;;;;;31.70;16.67;;;6.00;99.90;;;;;;5063515;28;20458;-62
2022/11/26 07:59:02;;;;;;;26.50;16.00;;;6.00;99.90;;;;;;5060896;28;20549;-62
2022/11/26 08:01:33;;;;;;;23.13;14.97;;;6.00;99.90;;;;;;5060484;28;20465;-63
2022/11/26 08:04:04;;;;;;;26.83;14.60;;;6.10;99.90;;;;;;5067646;28;20485;-63
2022/11/26 08:06:32;;;;;;;33.33;14.37;;;6.10;99.90;;;;;;5080421;28;20496;-62
2022/11/26 08:09:06;;;;;;;23.53;14.73;;;6.20;99.90;;;;;;5080711;28;20472;-62
2022/11/26 08:11:34;;;;;;;31.40;15.40;;;6.30;99.90;;;;;;5083428;28;20807;-63
2022/11/26 08:14:03;;;;;;;27.47;13.67;;;6.40;99.90;;;;;;5087043;28;20547;-63
2022/11/26 08:16:31;;;;;;;38.90;18.73;;;6.40;99.90;;;;;;5083061;28;20467;-63
2022/11/26 08:19:00;;;;;;;55.83;23.47;;;6.50;99.90;;;;;;5079408;28;20542;-63
2022/11/26 08:21:28;;;;;;;51.90;23.30;;;6.50;99.90;;;;;;5078378;28;20902;-63
2022/11/26 08:23:56;;;;;;;27.20;15.57;;;6.60;99.90;;;;;;5077934;28;20481;-62
2022/11/26 08:26:25;;;;;;;22.87;14.63;;;6.70;99.90;;;;;;5059651;28;20461;-62
2022/11/26 08:28:53;;;;;;;38.57;19.00;;;6.80;99.90;;;;;;5059878;28;20466;-62
2022/11/26 08:31:23;;;;;;;39.90;22.83;;;6.90;99.90;;;;;;5060175;28;20458;-62
2022/11/26 08:33:58;;;;;;;28.90;16.40;;;6.90;99.90;;;;;;5085288;28;20453;-62
2022/11/26 08:36:26;;;;;;;32.77;16.57;;;7.00;99.90;;;;;;5082010;28;20465;-62
2022/11/26 08:38:53;;;;;;;38.17;21.47;;;7.10;99.90;;;;;;5075668;28;20473;-62
2022/11/26 08:41:22;;;;;;;34.93;18.17;;;7.20;99.90;;;;;;5071721;28;20461;-62
2022/11/26 08:43:51;;;;;;;23.67;12.00;;;7.30;99.90;;;;;;5067263;28;20814;-62
2022/11/26 08:46:18;;;;;;;19.43;11.63;;;7.40;99.90;;;;;;5068530;28;20492;-62
2022/11/26 08:48:45;;;;;;;24.33;13.33;;;7.50;99.90;;;;;;5067270;28;20497;-62
2022/11/26 08:51:13;;;;;;;29.87;14.20;;;7.80;99.90;;;;;;5061002;28;20466;-62
2022/11/26 08:53:43;;;;;;;21.57;11.60;;;7.90;99.90;;;;;;5064040;28;20552;-62
2022/11/26 08:56:16;;;;;;;22.23;11.20;;;8.10;99.90;;;;;;5070504;28;20527;-62
2022/11/26 08:58:45;;;;;;;24.40;9.87;;;8.20;99.90;;;;;;5058983;28;20458;-62
2022/11/26 09:01:20;;;;;;;23.10;12.07;;;8.30;99.90;;;;;;5070009;28;20465;-61
2022/11/26 09:03:48;;;;;;;16.20;9.37;;;8.30;99.90;;;;;;5077078;28;20480;-61
2022/11/26 09:06:21;;;;;;;18.43;9.40;;;8.30;99.90;;;;;;5074227;28;20462;-61
2022/11/26 09:11:37;;;;;;;17.53;11.20;;;8.40;99.90;;;;;;5059395;28;20439;-61
2022/11/26 09:14:10;;;;;;;15.53;8.80;;;8.50;99.90;;;;;;5058905;28;20475;-61
2022/11/26 09:16:39;;;;;;;16.60;9.53;;;8.60;99.90;;;;;;5061582;28;20458;-61
2022/11/26 09:19:07;;;;;;;12.67;8.33;;;8.70;99.90;;;;;;5078509;28;20524;-61
2022/11/26 09:21:44;;;;;;;16.50;7.80;;;8.90;99.90;;;;;;5077782;28;20457;-61
2022/11/26 09:24:15;;;;;;;16.37;8.60;;;9.00;99.90;;;;;;5078858;28;20472;-61
2022/11/26 09:26:47;;;;;;;15.33;7.10;;;9.00;99.90;;;;;;5078020;28;20504;-61
2022/11/26 09:29:19;;;;;;;18.47;9.00;;;9.00;99.90;;;;;;5059428;28;20458;-62
2022/11/26 09:31:56;;;;;;;18.80;7.60;;;9.10;99.90;;;;;;5059905;28;20462;-61
2022/11/26 09:34:24;;;;;;;13.23;7.83;;;9.40;99.90;;;;;;5069140;28;20721;-61
2022/11/26 09:36:51;;;;;;;13.43;8.30;;;9.50;99.90;;;;;;5078851;28;20470;-61
2022/11/26 09:39:23;;;;;;;13.40;7.17;;;9.70;99.90;;;;;;5060530;28;20560;-61
2022/11/26 09:41:56;;;;;;;10.90;7.00;;;9.70;99.90;;;;;;5058090;28;20565;-61
2022/11/26 09:44:30;;;;;;;11.63;7.67;;;9.80;99.90;;;;;;5058549;28;20469;-61
2022/11/26 09:47:09;;;;;;;10.53;6.50;;;10.00;99.90;;;;;;5069911;28;20800;-61
2022/11/26 09:49:41;;;;;;;9.27;6.53;;;10.00;99.90;;;;;;5069979;28;20852;-62
2022/11/26 09:52:13;;;;;;;10.40;5.93;;;10.00;99.90;;;;;;5058906;28;20512;-60
2022/11/26 09:54:41;;;;;;;13.13;6.70;;;10.00;99.90;;;;;;5056854;28;20458;-60
2022/11/26 09:57:20;;;;;;;11.70;6.93;;;9.90;1.00;;;;;;5057024;28;20895;-60
2022/11/26 09:59:49;;;;;;;13.20;7.13;;;10.00;99.90;;;;;;5071598;28;20461;-60
2022/11/26 10:02:23;;;;;;;10.03;6.70;;;10.30;99.90;;;;;;5078263;28;20457;-60
2022/11/26 10:04:51;;;;;;;12.23;6.37;;;10.50;1.00;;;;;;5076823;28;20496;-61
2022/11/26 10:07:36;;;;;;;16.43;7.87;;;10.50;1.00;;;;;;5078212;28;20973;-61
2022/11/26 10:10:17;;;;;;;11.27;7.40;;;10.60;1.00;;;;;;5065042;28;20470;-61
2022/11/26 10:12:56;;;;;;;10.90;5.93;;;10.80;1.00;;;;;;5059388;28;20489;-61
2022/11/26 10:15:37;;;;;;;11.40;5.93;;;10.80;1.00;;;;;;5061405;28;20466;-61
2022/11/26 10:18:17;;;;;;;12.77;7.20;;;10.50;1.00;;;;;;5073852;28;20458;-64
2022/11/26 10:21:09;;;;;;;14.30;6.17;;;10.50;1.00;;;;;;5063365;28;20484;-64
2022/11/26 10:23:44;;;;;;;19.93;7.33;;;10.30;1.00;;;;;;5057769;28;20505;-64
2022/11/26 10:26:16;;;;;;;15.53;6.83;;;10.20;1.00;;;;;;5067807;28;20456;-64
2022/11/26 10:28:47;;;;;;;13.13;6.17;;;10.10;1.00;;;;;;5067735;28;20555;-64
2022/11/26 10:31:34;;;;;;;13.23;6.10;;;10.20;1.00;;;;;;5069363;28;20810;-64
2022/11/26 10:34:13;;;;;;;13.43;6.03;;;10.40;1.00;;;;;;5064646;28;20460;-64
2022/11/26 10:36:44;;;;;;;14.00;7.17;;;10.40;1.00;;;;;;5060837;28;20497;-64
2022/11/26 10:42:03;;;;;;;10.97;6.00;;;10.30;1.00;;;;;;5063050;28;20466;-64
2022/11/26 10:44:36;;;;;;;12.53;6.70;;;10.50;1.00;;;;;;5057757;28;20429;-64
2022/11/26 10:47:31;;;;;;;15.53;7.07;;;10.60;1.00;;;;;;5057006;28;20464;-64
2022/11/26 10:50:21;;;;;;;11.70;5.83;;;10.50;1.00;;;;;;5033296;28;20498;-65
2022/11/26 10:52:48;;;;;;;15.17;6.53;;;10.40;1.00;;;;;;5070218;28;20730;-64
2022/11/26 10:55:22;;;;;;;12.43;6.10;;;10.30;1.00;;;;;;5076594;28;20461;-65
2022/11/26 10:57:53;;;;;;;13.20;6.70;;;10.20;1.00;;;;;;5076452;28;20463;-64
2022/11/26 11:00:38;;;;;;;12.43;6.20;;;10.20;1.00;;;;;;5076832;28;20457;-64
2022/11/26 11:03:17;;;;;;;15.23;6.60;;;10.10;1.00;;;;;;5063872;28;20486;-65
2022/11/26 11:05:52;;;;;;;14.80;6.17;;;10.20;1.00;;;;;;5057130;28;20464;-64
2022/11/26 11:08:31;;;;;;;14.27;6.90;;;10.30;1.00;;;;;;5058289;28;20558;-65
2022/11/26 11:11:01;;;;;;;18.17;7.57;;;10.70;1.00;;;;;;5057778;28;20794;-65
2022/11/26 11:13:41;;;;;;;14.10;6.40;;;11.20;1.00;;;;;;5066630;28;20551;-64
2022/11/26 11:16:09;;;;;;;10.70;5.67;;;11.80;1.00;;;;;;5076673;28;20469;-64
2022/11/26 11:18:37;;;;;;;13.53;5.50;;;12.10;1.00;;;;;;5059258;28;20469;-64
2022/11/26 11:21:06;;;;;;;12.73;6.10;;;12.10;1.00;;;;;;5057314;28;20564;-64
2022/11/26 11:23:37;;;;;;;11.40;5.30;;;12.00;1.00;;;;;;5063857;28;20485;-64
2022/11/26 11:26:07;;;;;;;9.43;4.80;;;11.90;1.00;;;;;;5077370;28;20487;-64
2022/11/26 11:28:41;;;;;;;13.13;6.53;;;11.90;1.00;;;;;;5075268;28;20489;-64
2022/11/26 11:31:14;;;;;;;15.63;4.60;;;11.80;1.00;;;;;;5077350;28;20471;-64
2022/11/26 11:33:43;;;;;;;13.43;5.37;;;11.80;1.00;;;;;;5071353;28;20485;-64
2022/11/26 11:36:27;;;;;;;10.63;4.60;;;11.80;1.00;;;;;;5058020;28;20462;-64
2022/11/26 11:39:03;;;;;;;10.10;5.30;;;11.70;1.00;;;;;;5057258;28;20532;-64
2022/11/26 11:41:35;;;;;;;17.50;5.97;;;11.60;1.00;;;;;;5066144;28;20509;-64
2022/11/26 11:44:07;;;;;;;16.83;5.90;;;11.40;1.00;;;;;;5071542;28;20448;-64
2022/11/26 11:46:58;;;;;;;11.90;5.80;;;11.30;1.00;;;;;;5075952;28;20461;-64
2022/11/26 11:49:39;;;;;;;13.20;5.13;;;11.20;1.00;;;;;;5081342;28;20504;-65
2022/11/26 11:52:20;;;;;;;11.93;5.20;;;11.00;1.00;;;;;;5084806;28;20456;-64
2022/11/26 11:54:58;;;;;;;9.63;4.93;;;10.80;1.00;;;;;;5078249;28;20432;-63
2022/11/26 11:58:06;;;;;;;10.10;5.40;;;10.90;1.00;;;;;;5087065;28;20590;-64
2022/11/26 12:00:42;;;;;;;11.63;5.43;;;10.90;1.00;;;;;;5077749;28;20452;-64
2022/11/26 12:03:34;;;;;;;18.70;5.80;;;10.90;1.00;;;;;;5079080;28;20480;-64
2022/11/26 12:06:18;;;;;;;14.13;4.83;;;10.90;1.00;;;;;;5083959;28;20448;-64
2022/11/26 12:08:59;;;;;;;12.03;5.50;;;10.90;1.00;;;;;;5082911;28;20528;-64
2022/11/26 12:11:38;;;;;;;17.80;5.07;;;10.90;1.00;;;;;;5085840;28;20456;-64
2022/11/26 12:14:12;;;;;;;27.20;15.17;;;10.90;1.00;;;;;;5084212;28;20997;-64
2022/11/26 12:16:47;;;;;;;31.67;17.40;;;10.90;1.00;;;;;;5079261;28;20456;-64
2022/11/26 12:19:22;;;;;;;14.53;8.43;;;10.90;1.00;;;;;;5076901;28;20468;-64
2022/11/26 12:21:54;;;;;;;16.47;9.40;;;10.80;1.00;;;;;;5079929;28;20427;-64
2022/11/26 12:24:38;;;;;;;14.40;5.33;;;10.90;1.00;;;;;;5079470;28;20741;-64
2022/11/26 12:27:17;;;;;;;14.60;6.00;;;10.80;1.00;;;;;;5084742;28;20463;-64
2022/11/26 12:29:50;;;;;;;13.80;8.77;;;10.70;1.00;;;;;;5082775;28;20783;-64
2022/11/26 12:32:28;;;;;;;23.63;14.03;;;10.70;1.00;;;;;;5080978;28;20465;-64
2022/11/26 12:34:58;;;;;;;14.20;5.20;;;10.70;1.00;;;;;;5082561;28;20493;-64
2022/11/26 12:37:37;;;;;;;16.17;6.03;;;10.70;1.00;;;;;;5089941;28;20458;-64
2022/11/26 12:40:23;;;;;;;13.57;5.77;;;10.60;1.00;;;;;;5086097;28;20446;-64
2022/11/26 12:42:58;;;;;;;13.23;5.73;;;10.60;1.00;;;;;;5090799;28;20462;-64
2022/11/26 12:45:44;;;;;;;12.77;6.77;;;10.60;1.00;;;;;;5087825;28;20757;-64
2022/11/26 12:48:25;;;;;;;23.57;5.30;;;10.50;1.00;;;;;;5081195;28;20481;-64
2022/11/26 12:50:56;;;;;;;11.40;7.30;;;10.40;1.00;;;;;;5084181;28;20435;-64
2022/11/26 12:53:38;;;;;;;10.17;5.07;;;10.40;1.00;;;;;;5090302;28;20457;-64
2022/11/26 12:56:14;;;;;;;13.00;5.30;;;10.30;1.00;;;;;;5087917;28;21942;-64
2022/11/26 12:58:52;;;;;;;14.23;5.60;;;10.20;1.00;;;;;;5082805;28;20431;-64
2022/11/26 13:01:19;;;;;;;15.27;5.47;;;10.30;1.00;;;;;;5082293;28;20493;-64
2022/11/26 13:03:51;;;;;;;12.00;4.90;;;10.30;1.00;;;;;;5089841;28;20787;-64
2022/11/26 13:06:38;;;;;;;16.70;6.10;;;10.20;1.00;;;;;;5088717;28;20514;-64
2022/11/26 13:09:21;;;;;;;17.13;6.10;;;10.30;1.00;;;;;;5087970;28;20481;-64